Thailine 9 — 9WGP9 — position and weather

sailwx.info

Track history (hours):
 
Tides and Currents Weather Stations Pressure Air Temp Water Temp Dewpoint Dewpoint Depression Visibility Wind Speed Wind Dir Waves Ship Positions

Thailine 9

Last reported at 2017-Feb-01 20:13 UTC. Time now 2017-Feb-21 10:06 UTC.
Position N 33°50' E 131°27'.
Warning: this ship's position is 19 days out of date.

Length 113 m; draft 5 m.

Type: Ship. MMSI: 533791000.

Date/timePositionNaut miles runAvg speedWind from/ knotsBaromVisibWave heightAir tempDewpointWater temp
2017-Feb-01 20:13N 33°50' E 131°27'2 1.3
2017-Feb-01 18:23N 33°52' E 131°29'1 1.3
2017-Feb-01 17:32N 33°53' E 131°28'40 8.1
2017-Feb-01 12:33N 33°44' E 132°15'1110.6
2017-Feb-01 11:33N 33°47' E 132°27'1111.3
2017-Feb-01 10:33N 33°55' E 132°38'11411.1
2017-Feb-01 00:15N 34°33' E 134°48'1013.3
2017-Jan-31 23:32N 34°37' E 134°58'8 8.6
2017-Jan-31 22:33N 34°30' E 135°03'1211.8
2017-Jan-31 21:33N 34°19' E 135°00'1010.4
2017-Jan-31 20:33N 34°08' E 134°60'1110.9
2017-Jan-31 19:32N 33°57' E 134°60'242 7.6
2017-Jan-30 11:33N 35°05' E 139°42'1010.5
2017-Jan-30 10:33N 35°15' E 139°46'1110.7
2017-Jan-30 09:34N 35°26' E 139°44'3 2.8
2017-Jan-30 08:33N 35°28' E 139°42'0 0.0
2017-Jan-30 07:34N 35°28' E 139°42'0 0.0
2017-Jan-30 06:33N 35°28' E 139°42'0 0.0
2017-Jan-30 05:33N 35°28' E 139°42'0 0.0
2017-Jan-30 04:33N 35°28' E 139°42'0 0.0
2017-Jan-30 03:34N 35°28' E 139°42'0 0.0
2017-Jan-30 02:33N 35°28' E 139°42'0 0.0
2017-Jan-30 01:33N 35°28' E 139°42'0 0.0
2017-Jan-30 00:33N 35°28' E 139°42'0 0.0
2017-Jan-29 23:33N 35°28' E 139°42'0 0.1
2017-Jan-29 22:33N 35°28' E 139°42'2 2.2
2017-Jan-29 21:33N 35°25' E 139°42'0 0.1
2017-Jan-29 20:33N 35°26' E 139°42'0 0.1
2017-Jan-29 19:33N 35°26' E 139°42'0 0.0
2017-Jan-29 18:33N 35°26' E 139°42'0 0.1
2017-Jan-29 17:33N 35°26' E 139°42'0 0.1
2017-Jan-29 16:33N 35°26' E 139°42'0 0.1
2017-Jan-29 15:33N 35°26' E 139°42'0 0.0
2017-Jan-29 14:33N 35°26' E 139°42'0 0.0
2017-Jan-29 13:33N 35°26' E 139°42'0 0.0
2017-Jan-29 12:33N 35°26' E 139°42'0 0.0
2017-Jan-29 11:33N 35°26' E 139°42'0 0.0
2017-Jan-29 10:33N 35°26' E 139°42'0 0.0
2017-Jan-29 09:33N 35°26' E 139°42'0 0.1
2017-Jan-29 08:33N 35°26' E 139°42'0 0.1
2017-Jan-29 07:33N 35°26' E 139°42'0 0.1
2017-Jan-29 06:33N 35°26' E 139°42'0 0.0
2017-Jan-29 05:33N 35°26' E 139°42'0 0.0
2017-Jan-29 04:33N 35°26' E 139°42'0 0.0
2017-Jan-29 03:33N 35°26' E 139°42'0 0.0
2017-Jan-29 02:33N 35°26' E 139°42'0 0.1
2017-Jan-29 01:33N 35°26' E 139°42'0 0.0
2017-Jan-29 00:33N 35°26' E 139°42'0 0.0
2017-Jan-28 23:33N 35°26' E 139°42'0 0.0
2017-Jan-28 22:33N 35°26' E 139°42'0 0.0
2017-Jan-28 21:33N 35°26' E 139°42'0 0.0
2017-Jan-28 20:33N 35°26' E 139°42'0 0.0
2017-Jan-28 19:33N 35°26' E 139°42'0 0.1
2017-Jan-28 18:33N 35°26' E 139°42'0 0.0
2017-Jan-28 17:33N 35°26' E 139°42'0 0.0
2017-Jan-28 16:33N 35°26' E 139°42'0 0.1
2017-Jan-28 15:33N 35°26' E 139°42'0 0.0
2017-Jan-28 14:33N 35°26' E 139°42'0 0.1
2017-Jan-28 13:33N 35°26' E 139°42'0 0.0
2017-Jan-28 12:33N 35°26' E 139°42'0 0.0
2017-Jan-28 11:33N 35°26' E 139°42'0 0.0
2017-Jan-28 10:33N 35°26' E 139°42'0 0.0
2017-Jan-28 09:33N 35°26' E 139°42'0 0.0
2017-Jan-28 08:33N 35°26' E 139°42'0 0.0
2017-Jan-28 07:33N 35°26' E 139°42'0 0.0
2017-Jan-28 06:33N 35°26' E 139°42'0 0.4
2017-Jan-28 05:34N 35°26' E 139°42'1110.7
2017-Jan-28 04:33N 35°31' E 139°54'1110.8
2017-Jan-28 03:33N 35°35' E 140°06'0 0.3
2017-Jan-28 02:31N 35°36' E 140°06'0 0.0
2017-Jan-28 01:31N 35°36' E 140°06'0 0.0
2017-Jan-28 00:25N 35°36' E 140°06'0 0.0
2017-Jan-27 23:31N 35°36' E 140°06'0 0.0
2017-Jan-27 22:16N 35°36' E 140°06'0 0.0
2017-Jan-27 21:31N 35°36' E 140°06'0 0.0
2017-Jan-27 20:28N 35°36' E 140°06'0 0.0
2017-Jan-27 19:31N 35°36' E 140°06'0 0.0
2017-Jan-27 18:31N 35°36' E 140°06'0 0.0
2017-Jan-27 17:31N 35°36' E 140°06'0 0.0
2017-Jan-27 16:28N 35°36' E 140°06'0 0.0
2017-Jan-27 15:31N 35°36' E 140°06'0 0.0
2017-Jan-27 14:31N 35°36' E 140°06'0 0.0
2017-Jan-27 13:31N 35°36' E 140°06'0 0.0
2017-Jan-27 11:31N 35°36' E 140°06'0 0.0
2017-Jan-27 10:31N 35°36' E 140°06'0 0.0
2017-Jan-27 09:25N 35°36' E 140°06'0 0.0
2017-Jan-27 08:31N 35°36' E 140°06'0 0.0
2017-Jan-27 07:28N 35°36' E 140°06'0 0.0
2017-Jan-27 06:31N 35°36' E 140°06'0 0.0
2017-Jan-27 05:31N 35°36' E 140°06'0 0.0
2017-Jan-27 04:25N 35°36' E 140°06'0 0.1
2017-Jan-27 03:31N 35°36' E 140°06'0 0.0
2017-Jan-27 02:19N 35°36' E 140°06'0 0.0
2017-Jan-27 01:31N 35°36' E 140°06'0 0.0
2017-Jan-27 00:25N 35°36' E 140°06'0 0.0
2017-Jan-26 23:25N 35°36' E 140°06'0 0.0
2017-Jan-26 22:19N 35°36' E 140°06'0 0.0
2017-Jan-26 21:31N 35°36' E 140°06'0 0.0
2017-Jan-26 20:31N 35°36' E 140°06'0 0.0
2017-Jan-26 19:31N 35°36' E 140°06'0 0.0
2017-Jan-26 18:31N 35°36' E 140°06'0 0.0
2017-Jan-26 17:31N 35°36' E 140°06'0 0.0
2017-Jan-26 16:31N 35°36' E 140°06'0 0.0
2017-Jan-26 15:31N 35°36' E 140°06'0 0.0
2017-Jan-26 14:31N 35°36' E 140°06'0 0.0
2017-Jan-26 13:31N 35°36' E 140°06'0 0.0
2017-Jan-26 12:31N 35°36' E 140°06'0 0.0
2017-Jan-26 11:31N 35°36' E 140°06'0 0.0
2017-Jan-26 10:31N 35°36' E 140°06'0 0.0
2017-Jan-26 09:31N 35°36' E 140°06'0 0.0
2017-Jan-26 08:16N 35°36' E 140°06'0 0.0
2017-Jan-26 07:31N 35°36' E 140°06'2 2.3
2017-Jan-26 06:33N 35°35' E 140°03'1010.1
2017-Jan-26 05:33N 35°30' E 139°53'10 9.6
2017-Jan-26 04:33N 35°26' E 139°42'1 1.2
2017-Jan-26 03:32N 35°27' E 139°41'0 0.0
2017-Jan-26 02:32N 35°27' E 139°41'0 0.0
2017-Jan-26 01:32N 35°27' E 139°41'0 0.0
2017-Jan-26 00:32N 35°27' E 139°41'0 0.0
2017-Jan-25 23:32N 35°27' E 139°41'0 0.0
2017-Jan-25 22:32N 35°27' E 139°41'0 0.0
2017-Jan-25 21:32N 35°27' E 139°41'0 0.0
2017-Jan-25 20:32N 35°27' E 139°41'0 0.0
2017-Jan-25 19:32N 35°27' E 139°41'0 0.0
2017-Jan-25 18:32N 35°27' E 139°41'0 0.0
2017-Jan-25 17:32N 35°27' E 139°41'0 0.0
2017-Jan-25 16:32N 35°27' E 139°41'0 0.0
2017-Jan-25 15:32N 35°27' E 139°41'0 0.0
2017-Jan-25 14:32N 35°27' E 139°41'0 0.0
2017-Jan-25 13:32N 35°27' E 139°41'0 0.0
2017-Jan-25 12:32N 35°27' E 139°41'0 0.0
2017-Jan-25 11:32N 35°27' E 139°41'0 0.0
2017-Jan-25 10:32N 35°27' E 139°41'0 0.0
2017-Jan-25 09:32N 35°27' E 139°41'0 0.0
2017-Jan-25 08:32N 35°27' E 139°41'0 0.0
2017-Jan-25 07:32N 35°27' E 139°41'0 0.0
2017-Jan-25 06:32N 35°27' E 139°41'0 0.0
2017-Jan-25 05:32N 35°27' E 139°41'0 0.0
2017-Jan-25 04:32N 35°27' E 139°41'0 0.0
2017-Jan-25 03:32N 35°27' E 139°41'0 0.0
2017-Jan-25 02:32N 35°27' E 139°41'0 0.0
2017-Jan-25 01:32N 35°27' E 139°41'0 0.0
2017-Jan-25 00:32N 35°27' E 139°41'0 0.0
2017-Jan-24 23:32N 35°27' E 139°41'0 0.0
2017-Jan-24 22:32N 35°27' E 139°41'1 1.0
2017-Jan-24 21:34N 35°27' E 139°42'1 1.0
2017-Jan-24 20:32N 35°26' E 139°42'0 0.0
2017-Jan-24 19:32N 35°26' E 139°42'0 0.0
2017-Jan-24 18:32N 35°26' E 139°42'0 0.0
2017-Jan-24 17:32N 35°26' E 139°42'0 0.0
2017-Jan-24 16:32N 35°26' E 139°42'0 0.0
2017-Jan-24 15:32N 35°26' E 139°42'0 0.0
2017-Jan-24 14:32N 35°26' E 139°42'0 0.0
2017-Jan-24 13:32N 35°26' E 139°42'0 0.0
2017-Jan-24 12:32N 35°26' E 139°42'0 0.0
2017-Jan-24 11:31N 35°26' E 139°42'0 0.0
2017-Jan-24 10:29N 35°26' E 139°42'0 0.0
2017-Jan-24 09:32N 35°26' E 139°42'0 0.1
2017-Jan-24 08:29N 35°26' E 139°42'0 0.0
2017-Jan-24 07:29N 35°26' E 139°42'0 0.0
2017-Jan-24 06:31N 35°26' E 139°42'0 0.1
2017-Jan-24 05:31N 35°26' E 139°42'0 0.0
2017-Jan-24 04:31N 35°26' E 139°42'0 0.0
2017-Jan-24 03:31N 35°26' E 139°42'0 0.0
2017-Jan-24 02:31N 35°26' E 139°42'0 0.0
2017-Jan-24 01:32N 35°26' E 139°42'0 0.0
2017-Jan-24 00:32N 35°26' E 139°42'0 0.0
2017-Jan-23 23:32N 35°26' E 139°42'0 0.0
2017-Jan-23 22:32N 35°26' E 139°42'0 0.0
2017-Jan-23 21:32N 35°26' E 139°42'0 0.0
2017-Jan-23 20:32N 35°26' E 139°42'0 0.0
2017-Jan-23 19:32N 35°26' E 139°42'0 0.0
2017-Jan-23 18:32N 35°26' E 139°42'0 0.0
2017-Jan-23 17:32N 35°26' E 139°42'0 0.0
2017-Jan-23 16:32N 35°26' E 139°42'0 0.0
2017-Jan-23 15:32N 35°26' E 139°42'0 0.0
2017-Jan-23 14:32N 35°26' E 139°42'0 0.0
2017-Jan-23 13:32N 35°26' E 139°42'0 0.0
2017-Jan-23 12:32N 35°26' E 139°42'0 0.0
2017-Jan-23 11:32N 35°26' E 139°42'0 0.0
2017-Jan-23 10:32N 35°26' E 139°42'0 0.0
2017-Jan-23 09:32N 35°26' E 139°42'0 0.0
2017-Jan-23 08:32N 35°26' E 139°42'0 0.0
2017-Jan-23 07:32N 35°26' E 139°42'0 0.0
2017-Jan-23 06:32N 35°26' E 139°42'0 0.0
2017-Jan-23 05:32N 35°26' E 139°42'0 0.0
2017-Jan-23 04:32N 35°26' E 139°42'0 0.0
2017-Jan-23 03:32N 35°26' E 139°42'0 0.0
2017-Jan-23 02:32N 35°26' E 139°42'0 0.0
2017-Jan-23 01:32N 35°26' E 139°42'0 0.0
2017-Jan-23 00:32N 35°26' E 139°42'0 0.0
2017-Jan-22 23:32N 35°26' E 139°42'0 0.0
2017-Jan-22 22:32N 35°26' E 139°42'0 0.0
2017-Jan-22 21:32N 35°26' E 139°42'0 0.0
2017-Jan-22 20:32N 35°26' E 139°42'  
Track history (hours):
 
Tides and Currents Weather Stations Pressure Air Temp Water Temp Dewpoint Dewpoint Depression Visibility Wind Speed Wind Dir Waves Ship Positions

Thailine 9

Last reported at 2017-Feb-01 20:13 UTC. Time now 2017-Feb-21 10:06 UTC.
Position N 33°50' E 131°27'.
Warning: this ship's position is 19 days out of date.

Length 113 m; draft 5 m.

Type: Ship. MMSI: 533791000.

Date/timePositionNaut miles runAvg speedWind from/ knotsBaromVisibWave heightAir tempDewpointWater temp
2017-Feb-01 20:13N 33°50' E 131°27'2 1.3
2017-Feb-01 18:23N 33°52' E 131°29'1 1.3
2017-Feb-01 17:32N 33°53' E 131°28'40 8.1
2017-Feb-01 12:33N 33°44' E 132°15'1110.6
2017-Feb-01 11:33N 33°47' E 132°27'1111.3
2017-Feb-01 10:33N 33°55' E 132°38'11411.1
2017-Feb-01 00:15N 34°33' E 134°48'1013.3
2017-Jan-31 23:32N 34°37' E 134°58'8 8.6
2017-Jan-31 22:33N 34°30' E 135°03'1211.8
2017-Jan-31 21:33N 34°19' E 135°00'1010.4
2017-Jan-31 20:33N 34°08' E 134°60'1110.9
2017-Jan-31 19:32N 33°57' E 134°60'242 7.6
2017-Jan-30 11:33N 35°05' E 139°42'1010.5
2017-Jan-30 10:33N 35°15' E 139°46'1110.7
2017-Jan-30 09:34N 35°26' E 139°44'3 2.8
2017-Jan-30 08:33N 35°28' E 139°42'0 0.0
2017-Jan-30 07:34N 35°28' E 139°42'0 0.0
2017-Jan-30 06:33N 35°28' E 139°42'0 0.0
2017-Jan-30 05:33N 35°28' E 139°42'0 0.0
2017-Jan-30 04:33N 35°28' E 139°42'0 0.0
2017-Jan-30 03:34N 35°28' E 139°42'0 0.0
2017-Jan-30 02:33N 35°28' E 139°42'0 0.0
2017-Jan-30 01:33N 35°28' E 139°42'0 0.0
2017-Jan-30 00:33N 35°28' E 139°42'0 0.0
2017-Jan-29 23:33N 35°28' E 139°42'0 0.1
2017-Jan-29 22:33N 35°28' E 139°42'2 2.2
2017-Jan-29 21:33N 35°25' E 139°42'0 0.1
2017-Jan-29 20:33N 35°26' E 139°42'0 0.1
2017-Jan-29 19:33N 35°26' E 139°42'0 0.0
2017-Jan-29 18:33N 35°26' E 139°42'0 0.1
2017-Jan-29 17:33N 35°26' E 139°42'0 0.1
2017-Jan-29 16:33N 35°26' E 139°42'0 0.1
2017-Jan-29 15:33N 35°26' E 139°42'0 0.0
2017-Jan-29 14:33N 35°26' E 139°42'0 0.0
2017-Jan-29 13:33N 35°26' E 139°42'0 0.0
2017-Jan-29 12:33N 35°26' E 139°42'0 0.0
2017-Jan-29 11:33N 35°26' E 139°42'0 0.0
2017-Jan-29 10:33N 35°26' E 139°42'0 0.0
2017-Jan-29 09:33N 35°26' E 139°42'0 0.1
2017-Jan-29 08:33N 35°26' E 139°42'0 0.1
2017-Jan-29 07:33N 35°26' E 139°42'0 0.1
2017-Jan-29 06:33N 35°26' E 139°42'0 0.0
2017-Jan-29 05:33N 35°26' E 139°42'0 0.0
2017-Jan-29 04:33N 35°26' E 139°42'0 0.0
2017-Jan-29 03:33N 35°26' E 139°42'0 0.0
2017-Jan-29 02:33N 35°26' E 139°42'0 0.1
2017-Jan-29 01:33N 35°26' E 139°42'0 0.0
2017-Jan-29 00:33N 35°26' E 139°42'0 0.0
2017-Jan-28 23:33N 35°26' E 139°42'0 0.0
2017-Jan-28 22:33N 35°26' E 139°42'0 0.0
2017-Jan-28 21:33N 35°26' E 139°42'0 0.0
2017-Jan-28 20:33N 35°26' E 139°42'0 0.0
2017-Jan-28 19:33N 35°26' E 139°42'0 0.1
2017-Jan-28 18:33N 35°26' E 139°42'0 0.0
2017-Jan-28 17:33N 35°26' E 139°42'0 0.0
2017-Jan-28 16:33N 35°26' E 139°42'0 0.1
2017-Jan-28 15:33N 35°26' E 139°42'0 0.0
2017-Jan-28 14:33N 35°26' E 139°42'0 0.1
2017-Jan-28 13:33N 35°26' E 139°42'0 0.0
2017-Jan-28 12:33N 35°26' E 139°42'0 0.0
2017-Jan-28 11:33N 35°26' E 139°42'0 0.0
2017-Jan-28 10:33N 35°26' E 139°42'0 0.0
2017-Jan-28 09:33N 35°26' E 139°42'0 0.0
2017-Jan-28 08:33N 35°26' E 139°42'0 0.0
2017-Jan-28 07:33N 35°26' E 139°42'0 0.0
2017-Jan-28 06:33N 35°26' E 139°42'0 0.4
2017-Jan-28 05:34N 35°26' E 139°42'1110.7
2017-Jan-28 04:33N 35°31' E 139°54'1110.8
2017-Jan-28 03:33N 35°35' E 140°06'0 0.3
2017-Jan-28 02:31N 35°36' E 140°06'0 0.0
2017-Jan-28 01:31N 35°36' E 140°06'0 0.0
2017-Jan-28 00:25N 35°36' E 140°06'0 0.0
2017-Jan-27 23:31N 35°36' E 140°06'0 0.0
2017-Jan-27 22:16N 35°36' E 140°06'0 0.0
2017-Jan-27 21:31N 35°36' E 140°06'0 0.0
2017-Jan-27 20:28N 35°36' E 140°06'0 0.0
2017-Jan-27 19:31N 35°36' E 140°06'0 0.0
2017-Jan-27 18:31N 35°36' E 140°06'0 0.0
2017-Jan-27 17:31N 35°36' E 140°06'0 0.0
2017-Jan-27 16:28N 35°36' E 140°06'0 0.0
2017-Jan-27 15:31N 35°36' E 140°06'0 0.0
2017-Jan-27 14:31N 35°36' E 140°06'0 0.0
2017-Jan-27 13:31N 35°36' E 140°06'0 0.0
2017-Jan-27 11:31N 35°36' E 140°06'0 0.0
2017-Jan-27 10:31N 35°36' E 140°06'0 0.0
2017-Jan-27 09:25N 35°36' E 140°06'0 0.0
2017-Jan-27 08:31N 35°36' E 140°06'0 0.0
2017-Jan-27 07:28N 35°36' E 140°06'0 0.0
2017-Jan-27 06:31N 35°36' E 140°06'0 0.0
2017-Jan-27 05:31N 35°36' E 140°06'0 0.0
2017-Jan-27 04:25N 35°36' E 140°06'0 0.1
2017-Jan-27 03:31N 35°36' E 140°06'0 0.0
2017-Jan-27 02:19N 35°36' E 140°06'0 0.0
2017-Jan-27 01:31N 35°36' E 140°06'0 0.0
2017-Jan-27 00:25N 35°36' E 140°06'0 0.0
2017-Jan-26 23:25N 35°36' E 140°06'0 0.0
2017-Jan-26 22:19N 35°36' E 140°06'0 0.0
2017-Jan-26 21:31N 35°36' E 140°06'0 0.0
2017-Jan-26 20:31N 35°36' E 140°06'0 0.0
2017-Jan-26 19:31N 35°36' E 140°06'0 0.0
2017-Jan-26 18:31N 35°36' E 140°06'0 0.0
2017-Jan-26 17:31N 35°36' E 140°06'0 0.0
2017-Jan-26 16:31N 35°36' E 140°06'0 0.0
2017-Jan-26 15:31N 35°36' E 140°06'0 0.0
2017-Jan-26 14:31N 35°36' E 140°06'0 0.0
2017-Jan-26 13:31N 35°36' E 140°06'0 0.0
2017-Jan-26 12:31N 35°36' E 140°06'0 0.0
2017-Jan-26 11:31N 35°36' E 140°06'0 0.0
2017-Jan-26 10:31N 35°36' E 140°06'0 0.0
2017-Jan-26 09:31N 35°36' E 140°06'0 0.0
2017-Jan-26 08:16N 35°36' E 140°06'0 0.0
2017-Jan-26 07:31N 35°36' E 140°06'2 2.3
2017-Jan-26 06:33N 35°35' E 140°03'1010.1
2017-Jan-26 05:33N 35°30' E 139°53'10 9.6
2017-Jan-26 04:33N 35°26' E 139°42'1 1.2
2017-Jan-26 03:32N 35°27' E 139°41'0 0.0
2017-Jan-26 02:32N 35°27' E 139°41'0 0.0
2017-Jan-26 01:32N 35°27' E 139°41'0 0.0
2017-Jan-26 00:32N 35°27' E 139°41'0 0.0
2017-Jan-25 23:32N 35°27' E 139°41'0 0.0
2017-Jan-25 22:32N 35°27' E 139°41'0 0.0
2017-Jan-25 21:32N 35°27' E 139°41'0 0.0
2017-Jan-25 20:32N 35°27' E 139°41'0 0.0
2017-Jan-25 19:32N 35°27' E 139°41'0 0.0
2017-Jan-25 18:32N 35°27' E 139°41'0 0.0
2017-Jan-25 17:32N 35°27' E 139°41'0 0.0
2017-Jan-25 16:32N 35°27' E 139°41'0 0.0
2017-Jan-25 15:32N 35°27' E 139°41'0 0.0
2017-Jan-25 14:32N 35°27' E 139°41'0 0.0
2017-Jan-25 13:32N 35°27' E 139°41'0 0.0
2017-Jan-25 12:32N 35°27' E 139°41'0 0.0
2017-Jan-25 11:32N 35°27' E 139°41'0 0.0
2017-Jan-25 10:32N 35°27' E 139°41'0 0.0
2017-Jan-25 09:32N 35°27' E 139°41'0 0.0
2017-Jan-25 08:32N 35°27' E 139°41'0 0.0
2017-Jan-25 07:32N 35°27' E 139°41'0 0.0
2017-Jan-25 06:32N 35°27' E 139°41'0 0.0
2017-Jan-25 05:32N 35°27' E 139°41'0 0.0
2017-Jan-25 04:32N 35°27' E 139°41'0 0.0
2017-Jan-25 03:32N 35°27' E 139°41'0 0.0
2017-Jan-25 02:32N 35°27' E 139°41'0 0.0
2017-Jan-25 01:32N 35°27' E 139°41'0 0.0
2017-Jan-25 00:32N 35°27' E 139°41'0 0.0
2017-Jan-24 23:32N 35°27' E 139°41'0 0.0
2017-Jan-24 22:32N 35°27' E 139°41'1 1.0
2017-Jan-24 21:34N 35°27' E 139°42'1 1.0
2017-Jan-24 20:32N 35°26' E 139°42'0 0.0
2017-Jan-24 19:32N 35°26' E 139°42'0 0.0
2017-Jan-24 18:32N 35°26' E 139°42'0 0.0
2017-Jan-24 17:32N 35°26' E 139°42'0 0.0
2017-Jan-24 16:32N 35°26' E 139°42'0 0.0
2017-Jan-24 15:32N 35°26' E 139°42'0 0.0
2017-Jan-24 14:32N 35°26' E 139°42'0 0.0
2017-Jan-24 13:32N 35°26' E 139°42'0 0.0
2017-Jan-24 12:32N 35°26' E 139°42'0 0.0
2017-Jan-24 11:31N 35°26' E 139°42'0 0.0
2017-Jan-24 10:29N 35°26' E 139°42'0 0.0
2017-Jan-24 09:32N 35°26' E 139°42'0 0.1
2017-Jan-24 08:29N 35°26' E 139°42'0 0.0
2017-Jan-24 07:29N 35°26' E 139°42'0 0.0
2017-Jan-24 06:31N 35°26' E 139°42'0 0.1
2017-Jan-24 05:31N 35°26' E 139°42'0 0.0
2017-Jan-24 04:31N 35°26' E 139°42'0 0.0
2017-Jan-24 03:31N 35°26' E 139°42'0 0.0
2017-Jan-24 02:31N 35°26' E 139°42'0 0.0
2017-Jan-24 01:32N 35°26' E 139°42'0 0.0
2017-Jan-24 00:32N 35°26' E 139°42'0 0.0
2017-Jan-23 23:32N 35°26' E 139°42'0 0.0
2017-Jan-23 22:32N 35°26' E 139°42'0 0.0
2017-Jan-23 21:32N 35°26' E 139°42'0 0.0
2017-Jan-23 20:32N 35°26' E 139°42'0 0.0
2017-Jan-23 19:32N 35°26' E 139°42'0 0.0
2017-Jan-23 18:32N 35°26' E 139°42'0 0.0
2017-Jan-23 17:32N 35°26' E 139°42'0 0.0
2017-Jan-23 16:32N 35°26' E 139°42'0 0.0
2017-Jan-23 15:32N 35°26' E 139°42'0 0.0
2017-Jan-23 14:32N 35°26' E 139°42'0 0.0
2017-Jan-23 13:32N 35°26' E 139°42'0 0.0
2017-Jan-23 12:32N 35°26' E 139°42'0 0.0
2017-Jan-23 11:32N 35°26' E 139°42'0 0.0
2017-Jan-23 10:32N 35°26' E 139°42'0 0.0
2017-Jan-23 09:32N 35°26' E 139°42'0 0.0
2017-Jan-23 08:32N 35°26' E 139°42'0 0.0
2017-Jan-23 07:32N 35°26' E 139°42'0 0.0
2017-Jan-23 06:32N 35°26' E 139°42'0 0.0
2017-Jan-23 05:32N 35°26' E 139°42'0 0.0
2017-Jan-23 04:32N 35°26' E 139°42'0 0.0
2017-Jan-23 03:32N 35°26' E 139°42'0 0.0
2017-Jan-23 02:32N 35°26' E 139°42'0 0.0
2017-Jan-23 01:32N 35°26' E 139°42'0 0.0
2017-Jan-23 00:32N 35°26' E 139°42'0 0.0
2017-Jan-22 23:32N 35°26' E 139°42'0 0.0
2017-Jan-22 22:32N 35°26' E 139°42'0 0.0
2017-Jan-22 21:32N 35°26' E 139°42'0 0.0
2017-Jan-22 20:32N 35°26' E 139°42'  

Dump ship's entire track history